createdAt,value
2023-03-17T00:00:47.446Z,101336.55
2023-03-17T00:03:23.311Z,101341.95
2023-03-17T00:05:52.092Z,101334.50
2023-03-17T00:08:27.650Z,101330.94
2023-03-17T00:10:56.275Z,101341.17
2023-03-17T00:13:25.152Z,101341.66
2023-03-17T00:16:00.358Z,101343.78
2023-03-17T00:18:28.842Z,101347.94
2023-03-17T00:20:56.604Z,101346.01
2023-03-17T00:23:26.270Z,101344.47
2023-03-17T00:25:55.316Z,101341.34
2023-03-17T00:28:28.696Z,101332.93
2023-03-17T00:31:00.089Z,101337.80
2023-03-17T00:33:34.244Z,101334.66
2023-03-17T00:36:02.523Z,101328.71
2023-03-17T00:38:30.849Z,101332.34
2023-03-17T00:40:58.694Z,101324.23
2023-03-17T00:43:26.379Z,101326.20
2023-03-17T00:45:54.080Z,101321.81
2023-03-17T00:48:23.243Z,101330.28
2023-03-17T00:50:52.015Z,101322.66
2023-03-17T00:53:22.828Z,101313.44
2023-03-17T00:55:51.133Z,101314.98
2023-03-17T00:58:29.902Z,101321.84
2023-03-17T01:00:58.578Z,101315.83
2023-03-17T01:03:27.135Z,101326.36
2023-03-17T01:05:58.062Z,101328.02
2023-03-17T01:08:26.918Z,101327.63
2023-03-17T01:10:54.699Z,101324.82
2023-03-17T01:13:22.569Z,101314.78
2023-03-17T01:15:52.160Z,101311.94
2023-03-17T01:18:23.786Z,101305.92
2023-03-17T01:20:52.272Z,101309.58
2023-03-17T01:23:20.143Z,101295.45
2023-03-17T01:25:47.876Z,101287.31
2023-03-17T01:28:19.041Z,101281.66
2023-03-17T01:30:47.205Z,101269.46
2023-03-17T01:33:15.682Z,101268.54
2023-03-17T01:35:46.882Z,101262.72
2023-03-17T01:38:16.429Z,101264.23
2023-03-17T01:40:48.088Z,101254.05
2023-03-17T01:43:29.710Z,101257.55
2023-03-17T01:46:22.087Z,101257.00
2023-03-17T01:48:59.931Z,101264.20
2023-03-17T01:51:33.000Z,101270.73
2023-03-17T01:54:04.657Z,101276.03
2023-03-17T01:56:32.658Z,101281.46
2023-03-17T01:59:04.066Z,101282.08
2023-03-17T02:01:38.926Z,101274.00
2023-03-17T02:04:07.592Z,101265.56
2023-03-17T02:06:42.143Z,101267.56
2023-03-17T02:09:15.353Z,101263.05
2023-03-17T02:11:43.386Z,101260.73
2023-03-17T02:14:11.144Z,101259.98
2023-03-17T02:16:39.302Z,101260.04
2023-03-17T02:19:07.109Z,101260.95
2023-03-17T02:21:47.439Z,101254.48
2023-03-17T02:24:33.765Z,101257.33
2023-03-17T02:27:15.956Z,101247.62
2023-03-17T02:29:47.292Z,101232.90
2023-03-17T02:32:18.760Z,101241.34
2023-03-17T02:34:50.659Z,101247.48
2023-03-17T02:37:20.334Z,101259.29
2023-03-17T02:39:48.486Z,101262.66
2023-03-17T02:42:16.248Z,101268.73
2023-03-17T02:44:43.907Z,101263.21
2023-03-17T02:47:12.003Z,101257.55
2023-03-17T02:49:41.874Z,101252.23
2023-03-17T02:52:10.448Z,101256.61
2023-03-17T02:54:38.205Z,101259.84
2023-03-17T02:57:06.221Z,101256.28
2023-03-17T02:59:34.044Z,101253.04
2023-03-17T03:02:02.363Z,101259.52
2023-03-17T03:04:30.749Z,101252.68
2023-03-17T03:06:58.886Z,101262.82
2023-03-17T03:09:27.317Z,101265.27
2023-03-17T03:11:56.359Z,101250.79
2023-03-17T03:14:25.058Z,101252.81
2023-03-17T03:16:53.450Z,101255.56
2023-03-17T03:19:22.089Z,101270.54
2023-03-17T03:21:50.501Z,101260.50
2023-03-17T03:24:18.226Z,101251.63
2023-03-17T03:26:45.880Z,101264.13
2023-03-17T03:29:13.808Z,101258.08
2023-03-17T03:31:41.709Z,101270.63
2023-03-17T03:34:09.581Z,101267.85
2023-03-17T03:36:38.136Z,101274.00
2023-03-17T03:39:05.929Z,101267.53
2023-03-17T03:41:33.661Z,101278.05
2023-03-17T03:44:01.705Z,101276.45
2023-03-17T03:46:29.892Z,101287.77
2023-03-17T03:48:57.635Z,101283.35
2023-03-17T03:51:25.391Z,101280.09
2023-03-17T03:53:53.270Z,101285.68
2023-03-17T03:56:21.025Z,101284.83
2023-03-17T03:58:48.736Z,101287.61
2023-03-17T04:01:16.554Z,101281.03
2023-03-17T04:03:44.276Z,101278.91
2023-03-17T04:06:12.422Z,101277.99
2023-03-17T04:08:40.086Z,101279.50
2023-03-17T04:11:07.775Z,101281.46
2023-03-17T04:13:35.627Z,101287.48
2023-03-17T04:16:04.348Z,101293.13
2023-03-17T04:18:32.810Z,101289.44
2023-03-17T04:21:00.808Z,101283.68
2023-03-17T04:27:33.679Z,101285.16
2023-03-17T04:30:02.878Z,101279.14
2023-03-17T04:32:30.628Z,101263.34
2023-03-17T04:34:58.997Z,101267.01
2023-03-17T04:37:26.994Z,101277.89
2023-03-17T04:39:56.241Z,101268.54
2023-03-17T04:42:23.901Z,101272.17
2023-03-17T04:44:51.659Z,101269.75
2023-03-17T04:47:19.338Z,101256.41
2023-03-17T04:49:47.259Z,101266.05
2023-03-17T04:52:15.036Z,101257.09
2023-03-17T04:54:43.259Z,101257.95
2023-03-17T04:57:11.398Z,101254.68
2023-03-17T04:59:39.053Z,101267.53
2023-03-17T05:02:06.801Z,101258.24
2023-03-17T05:04:34.656Z,101268.31
2023-03-17T05:07:02.404Z,101267.49
2023-03-17T05:09:30.027Z,101269.85
2023-03-17T05:11:57.726Z,101273.52
2023-03-17T05:14:25.495Z,101264.20
2023-03-17T05:16:53.512Z,101263.05
2023-03-17T05:19:21.793Z,101262.59
2023-03-17T05:21:49.499Z,101271.55
2023-03-17T05:24:17.242Z,101265.08
2023-03-17T05:26:45.669Z,101271.62
2023-03-17T05:29:13.385Z,101273.61
2023-03-17T05:31:41.149Z,101276.03
2023-03-17T05:34:08.846Z,101275.21
2023-03-17T05:36:37.869Z,101267.53
2023-03-17T05:39:06.201Z,101266.74
2023-03-17T05:41:34.927Z,101276.45
2023-03-17T05:44:02.637Z,101274.56
2023-03-17T05:46:30.334Z,101282.44
2023-03-17T05:48:58.356Z,101285.32
2023-03-17T05:51:26.165Z,101278.52
2023-03-17T05:53:53.912Z,101284.96
2023-03-17T05:56:21.975Z,101279.73
2023-03-17T05:58:50.050Z,101276.06
2023-03-17T06:01:17.970Z,101284.53
2023-03-17T06:03:45.825Z,101287.73
2023-03-17T06:06:13.612Z,101287.38
2023-03-17T06:08:41.670Z,101292.31
2023-03-17T06:11:09.409Z,101294.54
2023-03-17T06:13:37.678Z,101290.58
2023-03-17T06:16:05.672Z,101288.62
2023-03-17T06:18:33.360Z,101290.29
2023-03-17T06:21:01.175Z,101291.50
2023-03-17T06:23:28.936Z,101283.06
2023-03-17T06:25:56.859Z,101276.55
2023-03-17T06:28:25.169Z,101285.84
2023-03-17T06:30:52.828Z,101289.05
2023-03-17T06:33:20.600Z,101289.38
2023-03-17T06:35:48.682Z,101292.87
2023-03-17T06:38:16.442Z,101297.25
2023-03-17T06:40:44.418Z,101298.43
2023-03-17T06:43:12.064Z,101289.83
2023-03-17T06:45:39.851Z,101290.55
2023-03-17T06:48:08.035Z,101284.80
2023-03-17T06:50:35.729Z,101291.14
2023-03-17T06:53:03.357Z,101292.15
2023-03-17T06:55:31.250Z,101284.73
2023-03-17T06:58:00.046Z,101282.96
2023-03-17T07:00:28.771Z,101282.05
2023-03-17T07:02:56.481Z,101281.91
2023-03-17T07:05:24.319Z,101281.20
2023-03-17T07:07:52.084Z,101287.80
2023-03-17T07:10:20.215Z,101293.27
2023-03-17T07:12:48.141Z,101294.67
2023-03-17T07:15:16.198Z,101296.53
2023-03-17T07:17:44.274Z,101307.23
2023-03-17T07:20:12.838Z,101308.27
2023-03-17T07:22:41.193Z,101316.64
2023-03-17T07:25:09.247Z,101320.11
2023-03-17T07:27:37.013Z,101319.16
2023-03-17T07:30:06.178Z,101323.87
2023-03-17T07:32:34.116Z,101341.63
2023-03-17T07:35:01.914Z,101332.66
2023-03-17T07:37:29.634Z,101329.82
2023-03-17T07:39:57.300Z,101320.60
2023-03-17T07:42:25.106Z,101308.53
2023-03-17T07:44:52.816Z,101306.57
2023-03-17T07:47:20.617Z,101297.61
2023-03-17T07:49:48.598Z,101297.02
2023-03-17T07:52:16.523Z,101306.77
2023-03-17T07:54:44.601Z,101301.90
2023-03-17T07:57:13.254Z,101283.39
2023-03-17T07:59:41.352Z,101291.53
2023-03-17T08:02:12.342Z,101289.11
2023-03-17T08:04:40.387Z,101284.73
2023-03-17T08:07:08.251Z,101298.89
2023-03-17T08:09:35.961Z,101306.57
2023-03-17T08:12:04.731Z,101304.58
2023-03-17T08:14:32.515Z,101296.11
2023-03-17T08:17:00.551Z,101298.66
2023-03-17T08:19:28.385Z,101280.91
2023-03-17T08:21:56.094Z,101287.28
2023-03-17T08:24:23.717Z,101287.64
2023-03-17T08:26:51.497Z,101286.49
2023-03-17T08:29:20.046Z,101274.79
2023-03-17T08:31:48.140Z,101282.27
2023-03-17T08:34:17.288Z,101276.33
2023-03-17T08:36:44.908Z,101276.55
2023-03-17T08:39:12.698Z,101279.95
2023-03-17T08:41:40.445Z,101279.37
2023-03-17T08:44:10.053Z,101274.59
2023-03-17T08:46:38.571Z,101265.77
2023-03-17T08:49:06.293Z,101268.70
2023-03-17T08:51:36.991Z,101268.45
2023-03-17T08:54:06.213Z,101267.07
2023-03-17T08:56:34.561Z,101269.52
2023-03-17T08:59:02.250Z,101270.99
2023-03-17T09:01:29.979Z,101268.90
2023-03-17T09:03:57.670Z,101261.51
2023-03-17T09:06:26.575Z,101259.16
2023-03-17T09:08:56.498Z,101251.87
2023-03-17T09:11:27.681Z,101264.42
2023-03-17T09:13:56.600Z,101266.16
2023-03-17T09:16:25.355Z,101262.39
2023-03-17T09:18:53.938Z,101256.67
2023-03-17T09:21:22.370Z,101254.16
2023-03-17T09:23:50.081Z,101250.79
2023-03-17T09:26:17.775Z,101242.74
2023-03-17T09:28:45.920Z,101237.15
2023-03-17T09:31:14.087Z,101248.43
2023-03-17T09:33:42.787Z,101248.76
2023-03-17T09:36:11.629Z,101249.41
2023-03-17T09:38:39.655Z,101244.18
2023-03-17T09:41:22.437Z,101253.20
2023-03-17T09:44:07.756Z,101254.45
2023-03-17T09:46:49.592Z,101239.41
2023-03-17T09:49:30.596Z,101252.26
2023-03-17T09:51:58.328Z,101235.81
2023-03-17T09:54:34.493Z,101244.87
2023-03-17T09:57:15.562Z,101239.21
2023-03-17T09:59:51.702Z,101246.11
2023-03-17T10:02:31.282Z,101245.81
2023-03-17T10:04:59.350Z,101239.83
2023-03-17T10:07:40.482Z,101240.65
2023-03-17T10:10:26.792Z,101243.07
2023-03-17T10:13:03.208Z,101242.94
2023-03-17T10:15:52.767Z,101233.91
2023-03-17T10:18:27.449Z,101234.24
2023-03-17T10:21:05.584Z,101224.73
2023-03-17T10:23:35.855Z,101220.27
2023-03-17T10:26:32.349Z,101210.14
2023-03-17T10:29:04.868Z,101216.16
2023-03-17T10:31:36.599Z,101212.49
2023-03-17T10:34:19.406Z,101208.18
2023-03-17T10:37:02.106Z,101201.48
2023-03-17T10:39:32.766Z,101206.67
2023-03-17T10:42:10.093Z,101200.72
2023-03-17T10:44:52.143Z,101198.50
2023-03-17T10:47:39.056Z,101187.61
2023-03-17T10:50:22.741Z,101172.08
2023-03-17T10:53:07.096Z,101172.80
2023-03-17T10:55:45.785Z,101176.52
2023-03-17T10:58:56.065Z,101168.45
2023-03-17T11:01:23.903Z,101175.70
2023-03-17T11:03:52.036Z,101180.68
2023-03-17T11:06:21.963Z,101182.41
2023-03-17T11:08:57.049Z,101181.23
2023-03-17T11:11:35.747Z,101174.20
2023-03-17T11:14:11.628Z,101180.02
2023-03-17T11:16:47.893Z,101171.23
2023-03-17T11:19:19.980Z,101170.34
2023-03-17T11:22:12.663Z,101165.70
2023-03-17T11:24:59.567Z,101159.45
2023-03-17T11:27:41.400Z,101160.73
2023-03-17T11:30:14.270Z,101162.56
2023-03-17T11:32:57.711Z,101143.73
2023-03-17T11:35:44.591Z,101135.62
2023-03-17T11:38:30.361Z,101119.30
2023-03-17T11:41:42.848Z,101127.02
2023-03-17T11:44:33.007Z,101118.97
2023-03-17T11:47:06.310Z,101111.58
2023-03-17T11:49:40.771Z,101115.05
2023-03-17T11:52:28.030Z,101123.55
2023-03-17T11:55:00.070Z,101128.09
2023-03-17T11:57:41.441Z,101120.15
2023-03-17T12:00:22.033Z,101114.49
2023-03-17T12:03:13.905Z,101114.36
2023-03-17T12:05:43.879Z,101111.38
2023-03-17T12:08:24.815Z,101104.16
2023-03-17T12:10:56.692Z,101114.03
2023-03-17T12:13:31.774Z,101104.26
2023-03-17T12:16:08.380Z,101095.46
2023-03-17T12:18:47.535Z,101088.20
2023-03-17T12:21:47.732Z,101079.66
2023-03-17T12:24:21.330Z,101086.47
2023-03-17T12:27:19.152Z,101090.39
2023-03-17T12:30:06.465Z,101085.62
2023-03-17T12:32:43.243Z,101077.25
2023-03-17T12:35:35.259Z,101079.60
2023-03-17T12:38:13.386Z,101081.46
2023-03-17T12:41:10.932Z,101079.50
2023-03-17T12:44:02.522Z,101076.73
2023-03-17T12:46:36.420Z,101074.80
2023-03-17T12:49:32.257Z,101074.63
2023-03-17T12:52:21.777Z,101069.46
2023-03-17T12:54:53.072Z,101068.48
2023-03-17T12:57:25.275Z,101072.67
2023-03-17T13:00:02.059Z,101067.99
2023-03-17T13:02:29.688Z,101053.60
2023-03-17T13:05:01.910Z,101051.80
2023-03-17T13:07:34.532Z,101052.10
2023-03-17T13:10:02.170Z,101034.57
2023-03-17T13:12:45.472Z,101038.53
2023-03-17T13:15:23.081Z,101038.01
2023-03-17T13:17:51.909Z,101034.84
2023-03-17T13:20:38.924Z,101032.77
2023-03-17T13:23:12.591Z,101028.06
2023-03-17T13:25:40.280Z,101022.31
2023-03-17T13:28:13.870Z,101027.84
2023-03-17T13:30:41.565Z,101023.95
2023-03-17T13:33:17.488Z,101035.45
2023-03-17T13:36:05.064Z,101028.88
2023-03-17T13:39:18.647Z,101019.47
2023-03-17T13:41:52.879Z,101012.66
2023-03-17T13:45:07.551Z,101001.64
2023-03-17T13:47:43.574Z,101003.45
2023-03-17T13:50:18.193Z,101001.61
2023-03-17T13:53:03.849Z,100999.48
2023-03-17T13:55:36.743Z,101007.04
2023-03-17T13:58:11.911Z,101011.52
2023-03-17T14:00:42.619Z,101012.56
2023-03-17T14:03:43.485Z,101007.86
2023-03-17T14:06:14.072Z,101011.09
2023-03-17T14:08:51.780Z,101010.90
2023-03-17T14:11:35.034Z,101008.31
2023-03-17T14:14:32.536Z,101011.26
2023-03-17T14:17:08.081Z,101014.92
2023-03-17T14:19:35.888Z,101010.80
2023-03-17T14:22:05.734Z,101007.95
2023-03-17T14:24:35.340Z,101001.16
2023-03-17T14:27:11.024Z,101009.82
2023-03-17T14:29:39.299Z,101005.41
2023-03-17T14:32:18.590Z,101000.40
2023-03-17T14:34:58.935Z,101004.36
2023-03-17T14:37:30.029Z,101002.79
2023-03-17T14:39:59.344Z,101006.98
2023-03-17T14:42:30.140Z,101015.61
2023-03-17T14:45:29.732Z,101008.77
2023-03-17T14:47:58.084Z,101008.28
2023-03-17T14:50:29.431Z,101005.41
2023-03-17T14:52:59.808Z,101009.03
2023-03-17T14:55:45.762Z,101005.93
2023-03-17T14:58:27.640Z,101006.48
2023-03-17T15:01:03.444Z,101014.33
2023-03-17T15:03:34.170Z,101002.30
2023-03-17T15:06:24.808Z,101000.17
2023-03-17T15:08:53.821Z,100997.26
2023-03-17T15:11:28.600Z,100997.52
2023-03-17T15:14:15.218Z,100987.29
2023-03-17T15:16:50.565Z,100996.74
2023-03-17T15:19:29.117Z,100993.08
2023-03-17T15:22:01.415Z,100988.86
2023-03-17T15:24:42.993Z,100988.63
2023-03-17T15:27:19.075Z,100984.45
2023-03-17T15:29:47.873Z,100983.13
2023-03-17T15:32:24.523Z,100983.92
2023-03-17T15:35:00.435Z,100978.43
2023-03-17T15:37:33.697Z,100973.45
2023-03-17T15:40:03.078Z,100970.84
2023-03-17T15:42:33.884Z,100973.75
2023-03-17T15:45:02.801Z,100966.46
2023-03-17T15:47:33.805Z,100958.05
2023-03-17T15:50:13.394Z,100960.70
2023-03-17T15:52:41.323Z,100964.66
2023-03-17T15:55:18.070Z,100961.52
2023-03-17T15:57:53.857Z,100959.66
2023-03-17T16:00:24.785Z,100951.29
2023-03-17T16:02:58.385Z,100958.09
2023-03-17T16:05:29.320Z,100959.16
2023-03-17T16:07:57.339Z,100960.96
2023-03-17T16:10:31.875Z,100950.99
2023-03-17T16:13:00.486Z,100945.14
2023-03-17T16:15:32.346Z,100956.13
2023-03-17T16:18:03.318Z,100945.56
2023-03-17T16:20:41.721Z,100951.02
2023-03-17T16:23:20.742Z,100950.70
2023-03-17T16:25:48.434Z,100952.95
2023-03-17T16:28:24.978Z,100942.39
2023-03-17T16:30:55.392Z,100945.70
2023-03-17T16:33:27.696Z,100947.98
2023-03-17T16:35:57.023Z,100941.31
2023-03-17T16:38:27.168Z,100937.29
2023-03-17T16:40:59.304Z,100935.63
2023-03-17T16:43:30.833Z,100927.97
2023-03-17T16:46:00.673Z,100923.91
2023-03-17T16:48:28.501Z,100933.20
2023-03-17T16:50:58.830Z,100936.73
2023-03-17T16:53:27.310Z,100929.08
2023-03-17T16:55:56.497Z,100943.08
2023-03-17T16:58:38.033Z,100946.61
2023-03-17T17:01:12.881Z,100946.48
2023-03-17T17:03:42.271Z,100945.53
2023-03-17T17:06:11.927Z,100942.52
2023-03-17T17:08:39.626Z,100946.31
2023-03-17T17:11:07.656Z,100956.13
2023-03-17T17:13:35.350Z,100957.01
2023-03-17T17:16:03.235Z,100969.44
2023-03-17T17:18:31.063Z,100975.84
2023-03-17T17:20:58.803Z,100971.04
2023-03-17T17:23:28.200Z,100978.46
2023-03-17T17:25:56.588Z,100980.95
2023-03-17T17:28:25.595Z,100979.27
2023-03-17T17:30:54.176Z,100989.05
2023-03-17T17:33:22.847Z,100984.80
2023-03-17T17:35:51.235Z,100986.27
2023-03-17T17:38:28.547Z,100991.44
2023-03-17T17:40:57.993Z,100999.71
2023-03-17T17:43:26.602Z,101003.77
2023-03-17T17:45:54.816Z,101002.07
2023-03-17T17:48:25.011Z,100999.91
2023-03-17T17:50:54.630Z,101004.75
2023-03-17T17:53:22.609Z,101000.47
2023-03-17T17:55:52.659Z,101005.01
2023-03-17T17:58:23.410Z,101005.41
2023-03-17T18:00:52.448Z,101003.18
2023-03-17T18:03:25.484Z,100997.36
2023-03-17T18:05:55.247Z,100994.68
2023-03-17T18:08:24.181Z,100999.52
2023-03-17T18:10:52.519Z,101011.91
2023-03-17T18:13:20.587Z,101016.20
2023-03-17T18:15:48.293Z,101013.84
2023-03-17T18:18:15.962Z,101012.14
2023-03-17T18:20:43.598Z,101018.84
2023-03-17T18:23:11.310Z,101019.04
2023-03-17T18:25:39.046Z,101023.36
2023-03-17T18:28:07.466Z,101031.59
2023-03-17T18:30:35.954Z,101033.07
2023-03-17T18:33:14.978Z,101031.01
2023-03-17T18:35:43.277Z,101026.85
2023-03-17T18:38:11.101Z,101039.91
2023-03-17T18:40:38.950Z,101038.79
2023-03-17T18:43:07.077Z,101034.34
2023-03-17T18:45:34.936Z,101043.44
2023-03-17T18:48:02.601Z,101041.21
2023-03-17T18:50:30.623Z,101047.91
2023-03-17T18:52:58.497Z,101051.41
2023-03-17T18:55:26.380Z,101046.38
2023-03-17T18:57:56.002Z,101055.60
2023-03-17T19:00:26.294Z,101052.13
2023-03-17T19:02:54.535Z,101052.46
2023-03-17T19:05:22.567Z,101060.90
2023-03-17T19:07:50.354Z,101052.98
2023-03-17T19:10:19.039Z,101057.76
2023-03-17T19:12:48.329Z,101065.28
2023-03-17T19:15:15.985Z,101064.63
2023-03-17T19:17:44.137Z,101058.28
2023-03-17T19:20:13.400Z,101060.50
2023-03-17T19:22:41.627Z,101062.27
2023-03-17T19:25:10.413Z,101061.16
2023-03-17T19:27:38.313Z,101057.98
2023-03-17T19:30:07.058Z,101053.70
2023-03-17T19:32:34.734Z,101059.59
2023-03-17T19:35:02.995Z,101060.05
2023-03-17T19:37:32.495Z,101056.12
2023-03-17T19:40:00.320Z,101060.73
2023-03-17T19:42:28.094Z,101066.91
2023-03-17T19:44:55.801Z,101064.52
2023-03-17T19:47:23.511Z,101062.92
2023-03-17T19:49:51.223Z,101074.04
2023-03-17T19:52:19.827Z,101077.41
2023-03-17T19:54:47.575Z,101075.02
2023-03-17T19:57:16.803Z,101079.14
2023-03-17T19:59:44.583Z,101085.32
2023-03-17T20:02:15.402Z,101080.05
2023-03-17T20:04:44.019Z,101082.15
2023-03-17T20:07:12.550Z,101084.70
2023-03-17T20:09:40.487Z,101081.86
2023-03-17T20:12:08.254Z,101083.88
2023-03-17T20:14:35.998Z,101097.06
2023-03-17T20:17:03.938Z,101093.89
2023-03-17T20:19:32.106Z,101090.72
2023-03-17T20:21:59.804Z,101091.18
2023-03-17T20:24:29.640Z,101095.30
2023-03-17T20:26:59.146Z,101096.28
2023-03-17T20:29:27.181Z,101098.83
2023-03-17T20:31:55.448Z,101111.98
2023-03-17T20:34:24.146Z,101101.84
2023-03-17T20:36:52.497Z,101110.86
2023-03-17T20:39:23.026Z,101109.75
2023-03-17T20:41:52.615Z,101112.27
2023-03-17T20:44:21.433Z,101114.03
2023-03-17T20:46:49.228Z,101114.20
2023-03-17T20:49:18.409Z,101112.59
2023-03-17T20:51:47.410Z,101115.15
2023-03-17T20:54:15.316Z,101116.39
2023-03-17T20:56:43.078Z,101119.43
2023-03-17T20:59:12.945Z,101112.59
2023-03-17T21:01:41.368Z,101113.55
2023-03-17T21:04:10.916Z,101111.62
2023-03-17T21:06:39.627Z,101115.41
2023-03-17T21:09:07.373Z,101120.80
2023-03-17T21:11:35.097Z,101117.63
2023-03-17T21:14:04.416Z,101119.33
2023-03-17T21:16:32.412Z,101122.66
2023-03-17T21:19:00.186Z,101118.68
2023-03-17T21:21:28.960Z,101123.74
2023-03-17T21:23:56.933Z,101116.13
2023-03-17T21:26:25.863Z,101128.00
2023-03-17T21:28:53.720Z,101131.34
2023-03-17T21:31:21.361Z,101125.77
2023-03-17T21:33:52.244Z,101128.29
2023-03-17T21:36:21.889Z,101135.26
2023-03-17T21:38:49.762Z,101137.35
2023-03-17T21:41:35.674Z,101137.80
2023-03-17T21:44:04.496Z,101133.36
2023-03-17T21:46:32.922Z,101134.77
2023-03-17T21:49:01.509Z,101136.04
2023-03-17T21:51:29.622Z,101139.84
2023-03-17T21:53:58.747Z,101127.93
2023-03-17T21:56:26.563Z,101139.02
2023-03-17T21:58:54.706Z,101137.12
2023-03-17T22:01:23.688Z,101150.10
2023-03-17T22:03:53.242Z,101162.33
2023-03-17T22:06:21.846Z,101152.98
2023-03-17T22:08:49.945Z,101155.83
2023-03-17T22:11:19.478Z,101158.34
2023-03-17T22:13:48.342Z,101150.73
2023-03-17T22:16:17.542Z,101158.48
2023-03-17T22:18:45.527Z,101158.18
2023-03-17T22:21:13.367Z,101163.05
2023-03-17T22:23:43.232Z,101170.02
2023-03-17T22:26:16.083Z,101168.91
2023-03-17T22:28:45.743Z,101163.67
2023-03-17T22:31:31.960Z,101161.41
2023-03-17T22:34:00.361Z,101168.19
2023-03-17T22:36:29.466Z,101171.52
2023-03-17T22:38:57.978Z,101169.59
2023-03-17T22:41:28.310Z,101172.89
2023-03-17T22:43:56.007Z,101176.49
2023-03-17T22:46:24.349Z,101178.59
2023-03-17T22:48:52.969Z,101183.45
2023-03-17T22:51:23.484Z,101182.45
2023-03-17T22:53:52.322Z,101186.10
2023-03-17T22:56:20.688Z,101187.97
2023-03-17T22:58:49.054Z,101185.58
2023-03-17T23:01:18.391Z,101195.98
2023-03-17T23:03:46.696Z,101194.51
2023-03-17T23:06:15.642Z,101195.33
2023-03-17T23:08:44.715Z,101201.15
2023-03-17T23:11:22.325Z,101211.09
2023-03-17T23:13:51.656Z,101201.73
2023-03-17T23:16:21.407Z,101208.24
2023-03-17T23:18:49.549Z,101206.64
2023-03-17T23:21:29.640Z,101211.09
2023-03-17T23:23:57.821Z,101213.48
2023-03-17T23:26:25.757Z,101217.23
2023-03-17T23:28:53.782Z,101217.40
2023-03-17T23:31:23.390Z,101213.73
2023-03-17T23:33:51.608Z,101208.83
2023-03-17T23:36:20.080Z,101221.36
2023-03-17T23:38:48.600Z,101220.90
2023-03-17T23:41:16.618Z,101218.05
2023-03-17T23:43:45.053Z,101224.53
2023-03-17T23:46:14.118Z,101232.28
2023-03-17T23:48:42.739Z,101229.56
2023-03-17T23:51:12.233Z,101225.57
2023-03-17T23:53:43.536Z,101229.37
2023-03-17T23:56:14.023Z,101232.21
2023-03-17T23:58:44.376Z,101227.44
